Time;durP1;ratioP1;P1;durP2;ratioP2;P2;SDS_P1;SDS_P2;PMS_P1;PMS_P2;Temp;Humidity;BMP_temperature;BMP_pressure;BME280_temperature;BME280_humidity;BME280_pressure;Samples;Min_cycle;Max_cycle;Signal;HPM_P1;HPM_P2
2023/07/15 00:00:45;;;;;;;5.97;2.30;;;;;;;22.99;100.00;100177.91;5046296;28;20085;-71
2023/07/15 00:03:14;;;;;;;6.03;2.65;;;;;;;22.93;100.00;100188.44;5046015;28;20855;-74
2023/07/15 00:05:40;;;;;;;6.43;3.10;;;;;;;22.88;100.00;100184.31;5043934;28;20053;-72
2023/07/15 00:08:08;;;;;;;5.22;2.53;;;;;;;22.87;100.00;100170.66;5046105;28;20056;-69
2023/07/15 00:10:37;;;;;;;10.43;2.45;;;;;;;22.88;100.00;100170.13;5040943;28;20098;-69
2023/07/15 00:13:08;;;;;;;3.90;2.20;;;;;;;22.85;100.00;100184.56;5052536;28;20048;-70
2023/07/15 00:15:35;;;;;;;6.68;2.90;;;;;;;22.89;100.00;100188.72;5046192;28;20056;-71
2023/07/15 00:18:01;;;;;;;10.45;3.05;;;;;;;22.91;100.00;100180.44;5047387;28;20072;-69
2023/07/15 00:20:28;;;;;;;9.05;3.00;;;;;;;22.81;100.00;100175.56;5047997;28;20044;-71
2023/07/15 00:22:54;;;;;;;5.85;2.95;;;;;;;22.68;100.00;100173.22;5042211;28;20099;-75
2023/07/15 00:25:21;;;;;;;8.05;2.70;;;;;;;22.57;100.00;100176.03;5045964;28;20553;-70
2023/07/15 00:27:48;;;;;;;5.35;2.53;;;;;;;22.42;100.00;100167.03;5044319;28;20080;-70
2023/07/15 00:30:17;;;;;;;6.82;2.72;;;;;;;22.31;100.00;100160.56;5048090;28;20090;-72
2023/07/15 00:32:46;;;;;;;7.93;2.80;;;;;;;22.23;100.00;100159.47;5042572;28;20128;-69
2023/07/15 00:35:22;;;;;;;8.80;2.50;;;;;;;22.13;100.00;100166.66;5047184;28;20049;-73
2023/07/15 00:37:48;;;;;;;7.82;2.80;;;;;;;22.12;100.00;100160.22;5045138;28;20114;-71
2023/07/15 00:40:15;;;;;;;4.75;2.67;;;;;;;22.04;100.00;100165.59;5045979;28;20175;-69
2023/07/15 00:43:28;;;;;;;7.82;3.05;;;;;;;22.08;100.00;100160.44;5045611;28;20496;-70
2023/07/15 00:46:20;;;;;;;8.00;2.85;;;;;;;22.04;100.00;100159.94;5022399;28;20095;-71
2023/07/15 00:49:19;;;;;;;4.85;2.35;;;;;;;22.07;100.00;100152.47;5039957;28;20607;-75
2023/07/15 00:52:09;;;;;;;7.13;2.60;;;;;;;22.04;100.00;100159.94;5026308;28;20510;-69
2023/07/15 00:54:41;;;;;;;6.15;2.58;;;;;;;22.14;100.00;100158.41;5042950;28;20045;-70
2023/07/15 00:57:11;;;;;;;12.02;2.72;;;;;;;22.17;100.00;100151.75;5047329;28;20052;-71
2023/07/15 00:59:39;;;;;;;8.05;2.08;;;;;;;22.13;100.00;100161.00;5047194;28;20087;-72
2023/07/15 01:02:08;;;;;;;6.63;2.42;;;;;;;22.15;100.00;100164.88;5045331;28;20141;-71
2023/07/15 01:04:36;;;;;;;6.85;2.40;;;;;;;22.17;100.00;100155.88;5044677;28;20055;-68
2023/07/15 01:07:04;;;;;;;7.25;2.70;;;;;;;22.14;100.00;100149.94;5046381;28;20062;-70
2023/07/15 01:09:32;;;;;;;9.60;2.88;;;;;;;22.11;100.00;100158.69;5044339;28;20063;-68
2023/07/15 01:11:59;;;;;;;8.65;2.38;;;;;;;22.12;100.00;100146.06;5028276;28;20080;-69
2023/07/15 01:14:29;;;;;;;6.40;2.63;;;;;;;22.05;100.00;100138.06;5051324;28;20080;-69
2023/07/15 01:16:55;;;;;;;5.55;2.30;;;;;;;22.09;100.00;100147.09;5027405;28;20178;-70
2023/07/15 01:19:22;;;;;;;6.30;2.63;;;;;;;22.11;100.00;100144.53;5046329;28;20041;-73
2023/07/15 01:21:50;;;;;;;6.47;2.13;;;;;;;22.09;100.00;100147.09;5037770;28;20424;-69
2023/07/15 01:24:19;;;;;;;10.10;2.85;;;;;;;22.09;100.00;100147.88;5037074;28;20566;-71
2023/07/15 01:26:46;;;;;;;8.13;2.70;;;;;;;22.05;100.00;100144.50;5043250;28;20110;-70
2023/07/15 01:29:13;;;;;;;5.13;2.33;;;;;;;22.04;100.00;100147.84;5038158;28;20082;-72
2023/07/15 01:31:44;;;;;;;6.30;2.50;;;;;;;21.95;100.00;100146.03;5040545;28;20041;-74
2023/07/15 01:34:12;;;;;;;5.13;2.38;;;;;;;21.95;100.00;100156.56;5044239;28;20049;-72
2023/07/15 01:36:43;;;;;;;5.63;2.78;;;;;;;21.87;100.00;100147.00;5045605;28;20082;-72
2023/07/15 01:39:12;;;;;;;9.88;2.90;;;;;;;21.75;100.00;100146.22;5038632;28;20047;-73
2023/07/15 01:41:48;;;;;;;8.75;2.42;;;;;;;21.75;100.00;100146.22;5045514;28;20580;-70
2023/07/15 01:44:25;;;;;;;10.13;2.78;;;;;;;21.71;100.00;100144.91;5045353;28;20045;-70
2023/07/15 01:47:09;;;;;;;8.48;2.90;;;;;;;21.57;100.00;100132.44;5038164;28;20401;-70
2023/07/15 01:49:36;;;;;;;4.20;2.20;;;;;;;21.52;100.00;100130.38;5047927;28;20459;-71
2023/07/15 01:52:02;;;;;;;9.48;2.80;;;;;;;21.49;100.00;100133.44;5044120;28;20095;-69
2023/07/15 01:54:29;;;;;;;7.03;2.13;;;;;;;21.43;100.00;100135.47;5046320;28;20053;-74
2023/07/15 01:56:55;;;;;;;7.22;2.80;;;;;;;21.39;100.00;100123.59;5047210;28;20068;-70
2023/07/15 01:59:22;;;;;;;7.82;2.60;;;;;;;21.37;100.00;100129.78;5044473;28;20130;-70
2023/07/15 02:01:49;;;;;;;8.65;2.58;;;;;;;21.34;100.00;100139.28;5046294;28;20131;-67
2023/07/15 02:04:16;;;;;;;6.50;2.70;;;;;;;21.31;100.00;100126.16;5047621;28;20052;-69
2023/07/15 02:06:42;;;;;;;5.60;2.38;;;;;;;21.20;100.00;100125.31;5047108;28;20104;-70
2023/07/15 02:09:09;;;;;;;4.18;2.42;;;;;;;21.28;100.00;100124.34;5046870;28;20071;-70
2023/07/15 02:11:35;;;;;;;4.45;2.30;;;;;;;21.39;100.00;100124.41;5050722;28;20079;-71
2023/07/15 02:14:02;;;;;;;6.78;2.22;;;;;;;21.53;100.00;100125.47;5048962;28;20139;-72
2023/07/15 02:19:06;;;;;;;8.30;2.78;;;;;;;21.54;100.00;100116.50;5513770;23;20100;-73
2023/07/15 02:21:32;;;;;;;7.88;3.22;;;;;;;21.60;100.00;100122.19;5023442;28;20061;-70
2023/07/15 02:23:59;;;;;;;8.77;2.92;;;;;;;21.61;100.00;100123.72;5028427;28;20074;-71
2023/07/15 02:26:27;;;;;;;6.10;2.33;;;;;;;21.62;100.00;100125.28;5021934;28;20054;-75
2023/07/15 02:28:57;;;;;;;9.18;2.80;;;;;;;21.59;100.00;100118.59;5014994;28;20128;-72
2023/07/15 02:31:23;;;;;;;4.53;2.55;;;;;;;21.60;100.00;100117.28;5016471;28;20077;-73
2023/07/15 02:33:50;;;;;;;8.35;2.47;;;;;;;21.62;100.00;100111.91;5019125;28;20512;-72
2023/07/15 02:36:18;;;;;;;5.57;2.60;;;;;;;21.60;100.00;100108.06;5015085;28;20693;-72
2023/07/15 02:38:45;;;;;;;8.02;2.38;;;;;;;21.57;100.00;100107.00;5012109;28;20532;-72
2023/07/15 02:41:12;;;;;;;4.70;2.42;;;;;;;21.54;100.00;100108.00;5013748;28;20050;-72
2023/07/15 02:43:38;;;;;;;4.97;2.25;;;;;;;21.51;100.00;100111.09;5025388;28;20478;-71
2023/07/15 02:46:05;;;;;;;5.35;2.60;;;;;;;21.49;100.00;100110.81;5012697;28;20417;-72
2023/07/15 02:48:32;;;;;;;9.23;2.60;;;;;;;21.47;100.00;100113.38;5015008;28;20693;-74
2023/07/15 02:50:59;;;;;;;11.02;2.40;;;;;;;21.38;100.00;100097.41;4993523;28;20096;-73
2023/07/15 02:53:26;;;;;;;7.60;2.85;;;;;;;21.37;100.00;100103.56;5010855;28;20413;-73
2023/07/15 02:55:52;;;;;;;6.90;2.58;;;;;;;21.29;100.00;100111.75;5010549;28;20042;-74
2023/07/15 02:58:19;;;;;;;7.82;2.40;;;;;;;21.14;100.00;100099.84;5000807;28;20058;-73
2023/07/15 03:00:48;;;;;;;6.68;2.58;;;;;;;21.09;100.00;100103.41;5016264;28;20046;-73
2023/07/15 03:03:14;;;;;;;8.93;2.90;;;;;;;20.98;100.00;100099.72;4999392;28;20088;-76
2023/07/15 03:05:45;;;;;;;7.93;2.53;;;;;;;20.90;100.00;100110.72;5013631;28;20095;-73
2023/07/15 03:08:12;;;;;;;4.53;2.20;;;;;;;20.82;100.00;100111.66;5010324;28;20513;-73
2023/07/15 03:10:41;;;;;;;7.18;2.67;;;;;;;20.81;100.00;100108.06;5010357;28;20046;-73
2023/07/15 03:13:08;;;;;;;7.10;2.70;;;;;;;20.75;100.00;100123.41;5010114;28;20495;-74
2023/07/15 03:15:35;;;;;;;6.85;2.83;;;;;;;20.65;100.00;100105.13;5017788;28;20072;-72
2023/07/15 03:18:02;;;;;;;7.80;2.45;;;;;;;20.63;100.00;100104.84;5005012;28;20046;-73
2023/07/15 03:20:30;;;;;;;7.45;2.90;;;;;;;20.70;100.00;100119.28;5012318;28;20050;-75
2023/07/15 03:22:57;;;;;;;6.32;2.67;;;;;;;20.75;100.00;100118.53;5010591;28;20050;-73
2023/07/15 03:25:24;;;;;;;10.45;2.83;;;;;;;20.81;100.00;100122.19;5011471;28;20056;-72
2023/07/15 03:27:51;;;;;;;8.38;3.13;;;;;;;20.82;100.00;100117.31;5009812;28;20132;-72
2023/07/15 03:30:18;;;;;;;5.13;2.80;;;;;;;20.76;100.00;100120.06;5020702;28;20088;-76
2023/07/15 03:32:45;;;;;;;8.13;2.88;;;;;;;20.78;100.00;100113.94;5014747;28;20244;-71
2023/07/15 03:35:12;;;;;;;7.30;2.60;;;;;;;20.78;100.00;100120.38;5017491;28;20097;-73
2023/07/15 03:37:41;;;;;;;5.13;2.35;;;;;;;20.74;100.00;100111.34;5009687;28;20497;-72
2023/07/15 03:40:08;;;;;;;8.32;3.17;;;;;;;20.66;100.00;100115.13;5026048;28;20046;-74
2023/07/15 03:42:35;;;;;;;7.68;2.58;;;;;;;20.57;100.00;100123.78;5024301;28;20053;-72
2023/07/15 03:45:03;;;;;;;6.28;2.53;;;;;;;20.49;100.00;100119.88;5022992;28;20049;-74
2023/07/15 03:47:29;;;;;;;8.98;2.70;;;;;;;20.45;100.00;100120.06;5009323;28;20495;-71
2023/07/15 03:49:56;;;;;;;9.95;2.97;;;;;;;20.34;100.00;100117.16;5016242;28;20056;-74
2023/07/15 03:52:24;;;;;;;6.57;3.10;;;;;;;20.27;100.00;100111.97;5021482;28;20049;-74
2023/07/15 03:54:50;;;;;;;5.05;2.67;;;;;;;20.19;100.00;100116.47;5019062;28;20100;-73
2023/07/15 03:57:17;;;;;;;9.80;2.78;;;;;;;20.07;100.00;100114.00;5009869;28;20068;-73
2023/07/15 03:59:43;;;;;;;11.05;3.20;;;;;;;;;;5009153;28;20046;-73
2023/07/15 04:02:10;;;;;;;9.63;3.85;;;;;;;20.00;100.00;100120.88;5010328;28;20077;-74
2023/07/15 04:04:36;;;;;;;6.90;3.08;;;;;;;20.00;100.00;100117.28;5011521;28;20085;-73
2023/07/15 04:07:03;;;;;;;8.93;2.90;;;;;;;19.97;100.00;100115.44;5009711;28;20045;-74
2023/07/15 04:09:30;;;;;;;9.60;3.63;;;;;;;19.89;100.00;100114.34;5003993;28;20093;-74
2023/07/15 04:11:57;;;;;;;8.20;3.50;;;;;;;19.83;100.00;100108.63;5020948;28;20042;-73
2023/07/15 04:14:23;;;;;;;5.72;2.90;;;;;;;19.77;100.00;100111.38;5008230;28;20432;-74
2023/07/15 04:16:50;;;;;;;6.05;2.75;;;;;;;19.72;100.00;100116.97;5015879;28;20513;-72
2023/07/15 04:19:16;;;;;;;8.95;3.35;;;;;;;19.70;100.00;100119.50;5018018;28;20099;-75
2023/07/15 04:21:43;;;;;;;7.72;3.00;;;;;;;19.63;100.00;100119.94;5018143;28;20420;-74
2023/07/15 04:24:09;;;;;;;7.10;2.92;;;;;;;19.70;100.00;100117.47;5009472;28;20085;-74
2023/07/15 04:26:36;;;;;;;9.02;3.42;;;;;;;19.72;100.00;100117.72;5010635;28;20501;-73
2023/07/15 04:29:03;;;;;;;12.40;3.47;;;;;;;19.71;100.00;100121.03;5009700;28;20077;-74
2023/07/15 04:31:29;;;;;;;6.78;3.10;;;;;;;19.74;100.00;100118.03;5025233;28;20049;-72
2023/07/15 04:33:56;;;;;;;9.20;3.08;;;;;;;19.76;100.00;100117.53;5009083;28;20046;-74
2023/07/15 04:36:22;;;;;;;9.63;3.63;;;;;;;19.77;100.00;100116.25;5009172;28;20830;-74
2023/07/15 04:38:49;;;;;;;5.97;2.78;;;;;;;19.87;100.00;100122.53;4996477;28;20046;-74
2023/07/15 04:41:16;;;;;;;6.70;2.47;;;;;;;19.91;100.00;100118.19;5014644;28;20494;-72
2023/07/15 04:43:42;;;;;;;7.22;2.65;;;;;;;20.05;100.00;100125.78;5011676;28;20049;-74
2023/07/15 04:46:09;;;;;;;7.55;2.63;;;;;;;20.11;100.00;100112.53;5009038;28;20041;-72
2023/07/15 04:48:36;;;;;;;12.07;4.25;;;;;;;20.23;100.00;100111.41;5012391;28;20136;-73
2023/07/15 04:51:02;;;;;;;6.40;2.60;;;;;;;20.34;100.00;100111.50;5003936;28;20045;-73
2023/07/15 04:53:29;;;;;;;5.15;2.30;;;;;;;20.46;100.00;100110.34;5011844;28;20469;-73
2023/07/15 04:55:55;;;;;;;7.57;2.60;;;;;;;20.59;100.00;100126.88;5008654;28;20096;-74
2023/07/15 04:58:22;;;;;;;8.27;2.60;;;;;;;20.74;100.00;100122.66;5017290;28;20075;-75
2023/07/15 05:00:48;;;;;;;7.72;2.53;;;;;;;20.86;100.00;100120.69;5015134;28;20141;-74
2023/07/15 05:03:15;;;;;;;9.80;2.28;;;;;;;20.97;100.00;100118.75;5009069;28;20049;-73
2023/07/15 05:05:44;;;;;;;4.72;2.25;;;;;;;21.09;100.00;100113.91;5006595;28;20084;-73
2023/07/15 05:08:12;;;;;;;5.57;2.38;;;;;;;21.15;100.00;100103.44;5015424;28;20437;-75
2023/07/15 05:10:39;;;;;;;7.80;3.20;;;;;;;21.26;100.00;100112.75;5008481;28;20452;-71
2023/07/15 05:13:10;;;;;;;6.10;2.72;;;;;;;21.33;100.00;100117.19;5009396;28;20049;-76
2023/07/15 05:15:38;;;;;;;4.93;2.35;;;;;;;21.42;100.00;100114.91;5005308;28;20049;-73
2023/07/15 05:18:06;;;;;;;6.93;2.50;;;;;;;21.51;100.00;100119.56;5007924;28;20168;-73
2023/07/15 05:20:33;;;;;;;4.93;2.33;;;;;;;21.57;100.00;100117.56;5015531;28;20045;-74
2023/07/15 05:23:02;;;;;;;8.02;2.10;;;;;;;21.62;100.00;100120.41;5018825;28;20120;-73
2023/07/15 05:25:29;;;;;;;8.73;2.35;;;;;;;21.73;100.00;100120.47;5003362;28;20049;-73
2023/07/15 05:27:57;;;;;;;8.85;2.30;;;;;;;21.78;100.00;100125.34;5017657;28;20049;-74
2023/07/15 05:30:24;;;;;;;5.22;2.40;;;;;;;21.82;100.00;100122.31;5006308;28;20050;-73
2023/07/15 05:32:51;;;;;;;5.70;2.20;;;;;;;21.91;100.00;100128.50;5010488;28;20046;-73
2023/07/15 05:35:18;;;;;;;4.68;2.30;;;;;;;22.00;100.00;100122.63;5021172;28;20089;-74
2023/07/15 05:37:45;;;;;;;5.40;2.17;;;;;;;22.01;100.00;100124.16;5017334;28;20080;-72
2023/07/15 05:40:12;;;;;;;5.78;2.22;;;;;;;22.04;100.00;100131.63;5027937;28;20077;-73
2023/07/15 05:42:39;;;;;;;6.85;2.65;;;;;;;22.15;100.00;100128.81;5007510;28;20103;-73
2023/07/15 05:45:07;;;;;;;6.82;2.45;;;;;;;22.19;100.00;100128.59;5026721;28;20045;-74
2023/07/15 05:47:34;;;;;;;8.00;2.33;;;;;;;22.19;100.00;100137.06;5022946;28;20053;-74
2023/07/15 05:50:01;;;;;;;5.05;2.08;;;;;;;22.33;100.00;100136.09;5006021;28;20184;-73
2023/07/15 05:52:28;;;;;;;3.53;1.90;;;;;;;22.42;100.00;100133.03;5029357;28;20053;-74
2023/07/15 05:54:55;;;;;;;6.38;2.13;;;;;;;22.46;100.00;100130.72;5021547;28;20077;-74
2023/07/15 05:57:21;;;;;;;12.15;3.95;;;;;;;22.54;100.00;100142.31;5000188;28;20517;-74
2023/07/15 05:59:48;;;;;;;4.15;2.15;;;;;;;22.55;100.00;100138.97;5022788;28;20099;-74
2023/07/15 06:02:14;;;;;;;3.58;2.17;;;;;;;22.64;100.00;100133.03;5017845;28;20042;-74
2023/07/15 06:04:41;;;;;;;9.63;2.53;;;;;;;22.72;100.00;100130.47;5011797;28;20244;-74
2023/07/15 06:07:07;;;;;;;6.05;2.28;;;;;;;22.79;100.00;100127.13;5015535;28;20079;-73
2023/07/15 06:09:34;;;;;;;3.45;2.05;;;;;;;22.88;100.00;100130.47;5021375;28;20108;-73
2023/07/15 06:12:01;;;;;;;1.08;0.82;;;;;;;22.86;100.00;100124.56;5019270;28;20563;-76
2023/07/15 06:14:28;;;;;;;7.78;1.90;;;;;;;22.99;100.00;100122.00;5016296;28;20053;-76
2023/07/15 06:16:55;;;;;;;7.50;2.13;;;;;;;23.11;100.00;100120.69;5016504;28;20470;-74
2023/07/15 06:19:21;;;;;;;9.05;2.85;;;;;;;23.12;100.00;100129.97;5013549;28;20050;-73
2023/07/15 06:21:48;;;;;;;5.80;2.15;;;;;;;23.23;100.00;100124.25;5018429;28;20053;-76
2023/07/15 06:24:14;;;;;;;5.32;2.50;;;;;;;23.26;100.00;100126.81;5019269;28;20846;-74
2023/07/15 06:26:41;;;;;;;4.75;2.45;;;;;;;23.34;100.00;100122.19;5022858;28;20459;-75
2023/07/15 06:29:09;;;;;;;5.40;2.20;;;;;;;23.32;100.00;100121.16;5021576;28;20077;-78
2023/07/15 06:31:35;;;;;;;3.88;1.90;;;;;;;23.37;100.00;100131.69;5010595;28;20118;-75
2023/07/15 06:34:02;;;;;;;4.60;2.22;;;;;;;23.48;100.00;100120.31;5020717;28;20100;-76
2023/07/15 06:36:28;;;;;;;7.35;2.10;;;;;;;23.55;100.00;100123.38;5002179;28;20451;-79
2023/07/15 06:38:58;;;;;;;4.75;2.28;;;;;;;23.64;100.00;100134.50;5018850;28;20045;-75
2023/07/15 06:41:24;;;;;;;5.32;2.50;;;;;;;23.70;100.00;100131.63;5003597;28;20076;-75
2023/07/15 06:43:51;;;;;;;4.25;2.22;;;;;;;23.79;100.00;100137.78;5021269;28;20449;-75
2023/07/15 06:46:18;;;;;;;4.28;2.25;;;;;;;23.85;100.00;100134.91;5023569;28;20912;-77
2023/07/15 06:48:45;;;;;;;5.70;1.77;;;;;;;23.83;100.00;100126.91;4997826;28;20054;-75
2023/07/15 06:51:14;;;;;;;6.50;1.98;;;;;;;23.97;100.00;100127.88;5012858;28;20536;-78
2023/07/15 06:53:41;;;;;;;3.10;2.00;;;;;;;24.14;100.00;100131.41;5011582;28;20141;-76
2023/07/15 06:56:08;;;;;;;4.00;1.95;;;;;;;24.09;100.00;100129.34;5000090;28;20132;-76
2023/07/15 06:58:46;;;;;;;5.57;2.08;;;;;;;24.30;100.00;100141.94;5017045;28;20054;-75
2023/07/15 07:01:13;;;;;;;5.80;2.10;;;;;;;24.39;100.00;100135.91;5016870;28;20470;-78
2023/07/15 07:03:40;;;;;;;10.80;2.70;;;;;;;24.52;100.00;100135.31;5016778;28;20087;-75
2023/07/15 07:06:07;;;;;;;3.65;2.10;;;;;;;24.65;100.00;100141.16;5020526;28;20053;-76
2023/07/15 07:08:33;;;;;;;9.05;2.75;;;;;;;24.58;100.00;100145.34;5020626;28;20143;-76
2023/07/15 07:11:00;;;;;;;6.57;2.25;;;;;;;24.84;100.00;100147.72;5014347;28;20060;-75
2023/07/15 07:13:27;;;;;;;4.88;2.28;;;;;;;24.90;100.00;100154.94;5020460;28;20057;-76
2023/07/15 07:15:57;;;;;;;5.43;1.98;;;;;;;24.77;100.00;100149.06;5022493;28;20510;-78
2023/07/15 07:18:25;;;;;;;4.43;1.77;;;;;;;25.01;100.00;100146.28;5010164;28;20506;-75
2023/07/15 07:20:59;;;;;;;10.50;2.30;;;;;;;25.12;100.00;100134.84;5010449;28;20042;-77
2023/07/15 07:23:25;;;;;;;4.70;1.88;;;;;;;25.18;100.00;100146.91;5013384;28;20570;-77
2023/07/15 07:25:53;;;;;;;4.15;1.88;;;;;;;25.18;100.00;100134.78;5017922;28;20108;-75
2023/07/15 07:28:24;;;;;;;6.53;2.10;;;;;;;25.22;100.00;100144.56;4996825;28;20065;-77
2023/07/15 07:30:50;;;;;;;2.65;1.10;;;;;;;25.07;100.00;100134.88;5014312;28;20460;-74
2023/07/15 07:33:19;;;;;;;1.77;0.75;;;;;;;25.10;100.00;100145.19;5020254;28;20045;-73
2023/07/15 07:35:46;;;;;;;4.63;1.67;;;;;;;25.39;100.00;100155.75;5015570;28;20505;-76
2023/07/15 07:38:13;;;;;;;9.32;2.97;;;;;;;25.54;100.00;100154.06;5016525;28;20049;-72
2023/07/15 07:40:45;;;;;;;3.55;1.92;;;;;;;25.51;100.00;100149.44;5021495;28;20045;-79
2023/07/15 07:43:12;;;;;;;7.63;1.90;;;;;;;25.50;100.00;100145.06;5019061;28;20053;-78
2023/07/15 07:45:39;;;;;;;5.13;2.13;;;;;;;25.58;100.00;100153.78;5013248;28;20054;-74
2023/07/15 07:48:05;;;;;;;3.72;1.83;;;;;;;25.49;100.00;100152.06;5016281;28;20073;-73
2023/07/15 07:50:34;;;;;;;1.30;1.10;;;;;;;25.22;100.00;100150.25;5008464;28;20100;-73
2023/07/15 07:53:01;;;;;;;2.22;1.13;;;;;;;25.22;100.00;100155.16;5007706;28;20045;-79
2023/07/15 07:55:28;;;;;;;3.67;1.90;;;;;;;25.35;100.00;100152.44;5015683;28;20085;-77
2023/07/15 07:57:54;;;;;;;8.88;2.00;;;;;;;25.24;100.00;100147.63;5003738;28;20072;-74
2023/07/15 08:00:21;;;;;;;2.75;1.30;;;;;;;25.14;100.00;100154.22;5015221;28;20087;-76
2023/07/15 08:02:47;;;;;;;2.05;1.15;;;;;;;25.02;100.00;100159.22;5018063;28;20632;-82
2023/07/15 08:05:14;;;;;;;1.98;1.30;;;;;;;24.90;100.00;100157.03;5020568;28;20072;-76
2023/07/15 08:07:41;;;;;;;1.70;1.25;;;;;;;25.12;100.00;100162.50;5015759;28;20077;-82
2023/07/15 08:10:07;;;;;;;4.35;1.55;;;;;;;25.12;100.00;100177.50;5024375;28;20069;-77
2023/07/15 08:12:34;;;;;;;4.85;2.15;;;;;;;25.35;100.00;100183.72;5025863;28;20049;-75
2023/07/15 08:15:01;;;;;;;1.90;1.02;;;;;;;25.23;100.00;100168.06;5011695;28;20053;-75
2023/07/15 08:17:29;;;;;;;3.72;2.22;;;;;;;25.34;100.00;100177.25;5022967;28;20045;-77
2023/07/15 08:19:55;;;;;;;1.75;1.25;;;;;;;25.22;100.00;100181.53;5000326;28;20049;-79
2023/07/15 08:22:22;;;;;;;8.77;2.20;;;;;;;25.34;100.00;100179.34;5009866;28;20058;-76
2023/07/15 08:24:49;;;;;;;6.07;1.65;;;;;;;25.28;100.00;100184.31;5004894;28;20377;-76
2023/07/15 08:27:15;;;;;;;5.70;1.85;;;;;;;25.19;100.00;100191.13;5023371;28;20041;-76
2023/07/15 08:29:42;;;;;;;5.30;2.40;;;;;;;25.23;100.00;100183.06;5019543;28;20054;-77
2023/07/15 08:32:08;;;;;;;3.65;1.80;;;;;;;25.40;100.00;100194.28;5005562;28;20042;-76
2023/07/15 08:34:35;;;;;;;4.32;2.20;;;;;;;25.50;100.00;100209.72;5013007;28;20049;-76
2023/07/15 08:37:02;;;;;;;3.42;1.35;;;;;;;25.50;100.00;100204.03;5020981;28;20428;-77
2023/07/15 08:39:28;;;;;;;8.20;2.83;;;;;;;25.64;100.00;100200.00;5016288;28;20058;-75
2023/07/15 08:41:57;;;;;;;3.85;1.63;;;;;;;25.31;100.00;100209.63;5017957;28;20072;-78
2023/07/15 08:44:24;;;;;;;4.60;2.03;;;;;;;25.46;100.00;100201.50;5020002;28;20121;-77
2023/07/15 08:46:52;;;;;;;9.98;2.78;;;;;;;25.44;100.00;100209.78;5020807;28;20111;-77
2023/07/15 08:49:21;;;;;;;1.88;1.00;;;;;;;25.30;100.00;100219.47;5019728;28;20108;-75
2023/07/15 08:51:48;;;;;;;1.70;1.35;;;;;;;25.27;100.00;100223.38;5015295;28;20651;-75
2023/07/15 08:54:15;;;;;;;4.32;2.13;;;;;;;25.33;100.00;100238.31;5011757;28;20046;-73
2023/07/15 08:56:42;;;;;;;4.18;1.48;;;;;;;25.24;100.00;100232.22;5009925;28;20046;-73
2023/07/15 08:59:12;;;;;;;6.13;2.35;;;;;;;25.46;100.00;100238.50;5010768;28;20402;-71
2023/07/15 09:01:39;;;;;;;7.22;2.58;;;;;;;25.40;100.00;100234.13;5010165;28;20037;-75
2023/07/15 09:04:08;;;;;;;10.77;2.80;;;;;;;25.55;100.00;100240.97;5006861;28;20045;-74
2023/07/15 09:06:35;;;;;;;5.88;1.77;;;;;;;25.22;100.00;100241.28;5022211;28;20053;-74
2023/07/15 09:09:02;;;;;;;6.75;2.33;;;;;;;25.40;100.00;100237.75;5012586;28;20103;-73
2023/07/15 09:11:42;;;;;;;5.25;1.77;;;;;;;25.06;100.00;100235.69;5015983;28;20049;-70
2023/07/15 09:14:14;;;;;;;7.63;3.00;;;;;;;25.03;100.00;100257.44;5013461;28;20041;-69
2023/07/15 09:16:42;;;;;;;4.93;1.83;;;;;;;24.93;100.00;100259.06;5016524;28;20054;-69
2023/07/15 09:19:10;;;;;;;6.55;2.55;;;;;;;24.89;100.00;100257.81;5016224;28;20053;-74
2023/07/15 09:21:36;;;;;;;7.85;2.78;;;;;;;24.76;100.00;100261.22;5008543;28;20454;-74
2023/07/15 09:24:03;;;;;;;3.78;2.22;;;;;;;24.66;100.00;100264.91;5012788;28;20180;-76
2023/07/15 09:26:29;;;;;;;5.35;1.90;;;;;;;24.60;100.00;100270.63;5012684;28;20073;-74
2023/07/15 09:28:56;;;;;;;3.10;1.33;;;;;;;24.50;100.00;100294.94;5020405;28;20517;-74
2023/07/15 09:31:24;;;;;;;5.07;2.05;;;;;;;24.37;100.00;100287.00;5016983;28;20127;-74
2023/07/15 09:33:51;;;;;;;2.80;1.27;;;;;;;24.18;100.00;100279.56;5015565;28;20128;-76
2023/07/15 09:36:30;;;;;;;7.82;2.45;;;;;;;23.86;100.00;100309.63;5018147;28;20077;-82
2023/07/15 09:39:10;;;;;;;4.53;1.88;;;;;;;23.62;100.00;100329.22;4991815;28;20096;-77
2023/07/15 09:41:37;;;;;;;4.10;1.40;;;;;;;23.34;100.00;100326.38;5013511;28;20038;-76
2023/07/15 09:44:04;;;;;;;3.83;1.77;;;;;;;22.96;100.00;100348.97;5013943;28;20509;-78
2023/07/15 09:46:31;;;;;;;4.78;1.90;;;;;;;22.50;100.00;100334.38;5008629;28;20140;-78
2023/07/15 09:48:58;;;;;;;4.85;2.40;;;;;;;22.31;100.00;100339.72;5012205;28;20100;-77
2023/07/15 09:51:26;;;;;;;5.55;2.50;;;;;;;22.40;100.00;100338.72;5007391;28;20050;-75
2023/07/15 09:53:55;;;;;;;4.97;1.52;;;;;;;21.88;100.00;100352.31;5010978;28;20085;-76
2023/07/15 09:56:34;;;;;;;4.13;2.10;;;;;;;21.71;100.00;100357.06;5008808;28;20046;-77
2023/07/15 09:59:21;;;;;;;3.70;1.13;;;;;;;21.64;100.00;100358.28;5010995;28;20100;-75
2023/07/15 10:01:52;;;;;;;6.20;2.35;;;;;;;21.35;100.00;100350.06;5024159;28;20072;-77
2023/07/15 10:04:31;;;;;;;3.75;1.85;;;;;;;21.13;100.00;100377.34;5010160;28;20054;-75
2023/07/15 10:07:00;;;;;;;6.28;2.70;;;;;;;21.32;100.00;100350.25;5015735;28;20096;-76
2023/07/15 10:09:26;;;;;;;7.93;2.20;;;;;;;21.15;100.00;100349.34;5005486;28;20103;-78
2023/07/15 10:11:54;;;;;;;3.42;1.85;;;;;;;21.11;100.00;100352.41;5012968;28;20054;-76
2023/07/15 10:14:22;;;;;;;7.03;3.30;;;;;;;20.93;100.00;100366.81;5002080;28;20525;-77
2023/07/15 10:17:06;;;;;;;7.65;3.10;;;;;;;20.87;100.00;100368.03;5006739;28;20084;-75
2023/07/15 10:19:49;;;;;;;8.20;3.28;;;;;;;20.78;100.00;100354.81;5004636;28;23426;-77
2023/07/15 10:22:21;;;;;;;3.38;1.52;;;;;;;20.52;100.00;100351.16;5014114;28;20045;-75
2023/07/15 10:24:56;;;;;;;4.38;2.03;;;;;;;20.58;100.00;100352.00;5018278;28;20041;-75
2023/07/15 10:27:27;;;;;;;4.95;2.75;;;;;;;20.49;100.00;100354.97;5014903;28;20077;-77
2023/07/15 10:30:14;;;;;;;6.40;2.80;;;;;;;20.40;100.00;100355.13;4996354;28;20046;-78
2023/07/15 10:33:10;;;;;;;9.10;3.10;;;;;;;20.36;100.00;100340.47;4998785;28;20493;-76
2023/07/15 10:35:40;;;;;;;4.88;1.63;;;;;;;20.34;100.00;100339.38;5011058;28;20453;-78
2023/07/15 10:38:29;;;;;;;9.00;3.15;;;;;;;20.49;100.00;100321.09;5025235;28;20053;-76
2023/07/15 10:41:01;;;;;;;7.30;2.60;;;;;;;20.29;100.00;100325.97;5019364;28;20077;-76
2023/07/15 10:43:34;;;;;;;5.45;2.42;;;;;;;20.30;100.00;100338.81;5014442;28;20050;-78
2023/07/15 10:46:03;;;;;;;6.95;3.38;;;;;;;20.46;100.00;100344.69;5017748;28;20752;-75
2023/07/15 10:48:30;;;;;;;7.97;3.30;;;;;;;20.44;100.00;100333.09;5019837;28;20156;-75
2023/07/15 10:51:00;;;;;;;7.93;3.10;;;;;;;20.59;100.00;100338.69;5019026;28;20049;-76
2023/07/15 10:53:29;;;;;;;6.32;3.38;;;;;;;20.68;100.00;100322.34;4994793;28;20041;-75
2023/07/15 10:56:09;;;;;;;8.55;3.95;;;;;;;20.84;100.00;100315.34;5018069;28;20053;-75
2023/07/15 10:58:36;;;;;;;5.63;2.80;;;;;;;21.03;100.00;100327.91;5022215;28;20140;-75
2023/07/15 11:01:05;;;;;;;8.98;3.70;;;;;;;21.17;100.00;100316.47;5020025;28;20061;-77
2023/07/15 11:03:35;;;;;;;9.20;4.13;;;;;;;21.41;100.00;100311.28;5017703;28;20049;-76
2023/07/15 11:06:03;;;;;;;10.38;3.88;;;;;;;21.44;100.00;100303.84;5016915;28;20060;-78
2023/07/15 11:08:32;;;;;;;7.47;3.40;;;;;;;21.60;100.00;100306.03;4999896;28;20580;-75
2023/07/15 11:11:01;;;;;;;9.07;2.80;;;;;;;21.77;100.00;100319.03;5024914;28;20049;-76
2023/07/15 11:13:29;;;;;;;6.03;2.65;;;;;;;21.97;100.00;100301.16;5016065;28;20842;-71
2023/07/15 11:15:56;;;;;;;5.88;2.70;;;;;;;22.08;100.00;100306.91;5011334;28;20045;-72
2023/07/15 11:18:25;;;;;;;7.95;3.13;;;;;;;22.14;100.00;100305.63;5015203;28;20053;-75
2023/07/15 11:20:54;;;;;;;6.20;3.22;;;;;;;22.08;100.00;100310.47;5019367;28;20166;-72
2023/07/15 11:23:21;;;;;;;5.45;2.80;;;;;;;22.17;100.00;100315.94;5016043;28;20042;-73
2023/07/15 11:25:48;;;;;;;6.88;2.88;;;;;;;22.13;100.00;100309.75;5014701;28;20053;-75